createdAt,value
2018-10-15T00:00:46.530Z,12.1
2018-10-15T00:01:47.197Z,12.0
2018-10-15T00:02:47.867Z,12.1
2018-10-15T00:03:48.536Z,12.1
2018-10-15T00:04:49.244Z,12.0
2018-10-15T00:05:49.875Z,12.1
2018-10-15T00:06:50.585Z,12.1
2018-10-15T00:07:51.253Z,12.0
2018-10-15T00:08:51.922Z,11.9
2018-10-15T00:09:52.591Z,12.1
2018-10-15T00:10:53.260Z,12.0
2018-10-15T00:11:53.928Z,12.0
2018-10-15T00:12:54.598Z,12.0
2018-10-15T00:13:55.266Z,11.9
2018-10-15T00:14:55.935Z,11.9
2018-10-15T00:15:56.605Z,11.9
2018-10-15T00:16:57.273Z,11.9
2018-10-15T00:17:57.941Z,11.9
2018-10-15T00:18:58.613Z,11.9
2018-10-15T00:19:59.282Z,11.9
2018-10-15T00:20:59.951Z,11.8
2018-10-15T00:22:00.619Z,11.8
2018-10-15T00:23:01.288Z,11.8
2018-10-15T00:24:01.957Z,11.8
2018-10-15T00:25:02.626Z,11.8
2018-10-15T00:26:03.295Z,11.7
2018-10-15T00:27:03.963Z,11.7
2018-10-15T00:28:04.633Z,11.7
2018-10-15T00:29:05.301Z,11.7
2018-10-15T00:30:05.970Z,11.8
2018-10-15T00:31:06.639Z,11.7
2018-10-15T00:32:07.309Z,11.8
2018-10-15T00:33:07.982Z,11.7
2018-10-15T00:34:08.648Z,11.7
2018-10-15T00:35:09.315Z,11.7
2018-10-15T00:36:09.985Z,11.7
2018-10-15T00:37:10.653Z,11.6
2018-10-15T00:38:11.330Z,11.7
2018-10-15T00:39:12.035Z,11.6
2018-10-15T00:40:12.705Z,11.6
2018-10-15T00:41:13.373Z,11.6
2018-10-15T00:42:14.040Z,11.6
2018-10-15T00:43:14.713Z,11.5
2018-10-15T00:44:15.380Z,11.6
2018-10-15T00:45:16.051Z,11.5
2018-10-15T00:46:16.715Z,11.6
2018-10-15T00:47:17.383Z,11.6
2018-10-15T00:48:18.050Z,11.5
2018-10-15T00:49:18.721Z,11.6
2018-10-15T00:50:19.432Z,11.5
2018-10-15T00:51:20.131Z,11.5
2018-10-15T00:52:20.770Z,11.6
2018-10-15T00:53:21.439Z,11.5
2018-10-15T00:54:22.107Z,11.5
2018-10-15T00:55:22.777Z,11.5
2018-10-15T00:56:23.448Z,11.5
2018-10-15T00:57:24.116Z,11.4
2018-10-15T00:58:24.784Z,11.4
2018-10-15T00:59:25.456Z,11.4
2018-10-15T01:00:26.121Z,11.3
2018-10-15T01:01:26.791Z,11.4
2018-10-15T01:02:27.463Z,11.3
2018-10-15T01:03:28.129Z,11.3
2018-10-15T01:04:28.797Z,11.3
2018-10-15T01:05:29.465Z,11.3
2018-10-15T01:06:30.132Z,11.3
2018-10-15T01:07:30.800Z,11.2
2018-10-15T01:08:31.470Z,11.3
2018-10-15T01:09:32.140Z,11.3
2018-10-15T01:10:32.806Z,11.3
2018-10-15T01:11:33.475Z,11.3
2018-10-15T01:12:34.143Z,11.3
2018-10-15T01:13:34.819Z,11.2
2018-10-15T01:14:35.481Z,11.2
2018-10-15T01:15:36.150Z,11.2
2018-10-15T01:16:36.820Z,11.3
2018-10-15T01:17:37.507Z,11.1
2018-10-15T01:18:38.199Z,11.2
2018-10-15T01:19:38.867Z,11.1
2018-10-15T01:20:39.539Z,11.2
2018-10-15T01:21:40.208Z,11.1
2018-10-15T01:22:40.917Z,11.0
2018-10-15T01:23:41.586Z,11.1
2018-10-15T01:24:42.253Z,11.1
2018-10-15T01:25:42.922Z,11.1
2018-10-15T01:26:43.592Z,11.1
2018-10-15T01:27:44.301Z,11.2
2018-10-15T01:28:44.969Z,11.2
2018-10-15T01:29:45.636Z,11.1
2018-10-15T01:30:46.304Z,11.1
2018-10-15T01:31:46.974Z,11.1
2018-10-15T01:32:47.687Z,11.1
2018-10-15T01:33:48.354Z,11.1
2018-10-15T01:34:49.020Z,11.1
2018-10-15T01:35:49.689Z,11.1
2018-10-15T01:36:50.358Z,11.1
2018-10-15T01:37:51.031Z,11.1
2018-10-15T01:38:51.693Z,11.1
2018-10-15T01:39:52.363Z,11.1
2018-10-15T01:40:53.032Z,11.1
2018-10-15T01:41:53.700Z,11.1
2018-10-15T01:42:54.368Z,11.1
2018-10-15T01:43:55.036Z,11.1
2018-10-15T01:44:55.703Z,11.1
2018-10-15T01:45:56.372Z,11.1
2018-10-15T01:46:57.042Z,11.2
2018-10-15T01:47:57.710Z,11.1
2018-10-15T01:48:58.379Z,11.2
2018-10-15T01:49:59.046Z,11.1
2018-10-15T01:50:59.712Z,11.0
2018-10-15T01:52:00.382Z,11.1
2018-10-15T01:53:01.051Z,11.1
2018-10-15T01:54:01.718Z,11.2
2018-10-15T01:55:02.455Z,11.1
2018-10-15T01:56:03.091Z,11.1
2018-10-15T01:57:03.757Z,11.2
2018-10-15T01:58:04.425Z,11.1
2018-10-15T01:59:05.094Z,11.1
2018-10-15T02:00:05.764Z,11.1
2018-10-15T02:01:06.432Z,11.1
2018-10-15T02:02:07.099Z,11.0
2018-10-15T02:03:07.769Z,11.0
2018-10-15T02:04:08.436Z,11.1
2018-10-15T02:05:09.107Z,11.0
2018-10-15T02:06:09.777Z,11.1
2018-10-15T02:07:10.442Z,11.0
2018-10-15T02:08:11.111Z,11.0
2018-10-15T02:09:11.780Z,11.0
2018-10-15T02:10:12.450Z,11.0
2018-10-15T02:11:13.117Z,10.9
2018-10-15T02:12:13.827Z,10.9
2018-10-15T02:13:14.496Z,11.0
2018-10-15T02:14:15.164Z,10.9
2018-10-15T02:15:15.833Z,10.9
2018-10-15T02:16:16.530Z,10.9
2018-10-15T02:17:17.168Z,10.9
2018-10-15T02:18:17.836Z,10.9
2018-10-15T02:19:18.506Z,10.9
2018-10-15T02:20:19.171Z,10.8
2018-10-15T02:21:19.841Z,10.8
2018-10-15T02:22:20.508Z,10.8
2018-10-15T02:23:21.174Z,10.9
2018-10-15T02:24:21.842Z,10.7
2018-10-15T02:25:22.510Z,10.7
2018-10-15T02:26:23.178Z,10.8
2018-10-15T02:27:23.847Z,10.8
2018-10-15T02:28:24.516Z,10.8
2018-10-15T02:29:25.184Z,10.8
2018-10-15T02:30:25.851Z,10.8
2018-10-15T02:31:26.521Z,10.8
2018-10-15T02:32:27.189Z,10.8
2018-10-15T02:33:27.854Z,10.7
2018-10-15T02:34:28.523Z,10.6
2018-10-15T02:35:29.190Z,10.7
2018-10-15T02:36:29.856Z,10.6
2018-10-15T02:37:30.525Z,10.6
2018-10-15T02:38:31.196Z,10.7
2018-10-15T02:39:31.907Z,10.6
2018-10-15T02:40:32.575Z,10.7
2018-10-15T02:41:33.243Z,10.6
2018-10-15T02:42:33.911Z,10.6
2018-10-15T02:43:34.582Z,10.6
2018-10-15T02:44:35.250Z,10.7
2018-10-15T02:45:35.917Z,10.7
2018-10-15T02:46:36.586Z,10.6
2018-10-15T02:47:37.255Z,10.6
2018-10-15T02:48:37.923Z,10.7
2018-10-15T02:49:38.592Z,10.7
2018-10-15T02:50:39.260Z,10.5
2018-10-15T02:51:39.927Z,10.7
2018-10-15T02:52:40.595Z,10.6
2018-10-15T02:53:41.264Z,10.6
2018-10-15T02:54:41.933Z,10.5
2018-10-15T02:55:42.603Z,10.6
2018-10-15T02:56:43.272Z,10.6
2018-10-15T02:57:43.938Z,10.5
2018-10-15T02:58:44.607Z,10.6
2018-10-15T02:59:45.276Z,10.5
2018-10-15T03:00:45.945Z,10.5
2018-10-15T03:01:46.612Z,10.5
2018-10-15T03:02:47.282Z,10.5
2018-10-15T03:03:47.951Z,10.5
2018-10-15T03:04:48.620Z,10.5
2018-10-15T03:05:49.286Z,10.4
2018-10-15T03:06:49.957Z,10.5
2018-10-15T03:07:50.626Z,10.4
2018-10-15T03:08:51.294Z,10.4
2018-10-15T03:09:51.998Z,10.4
2018-10-15T03:10:52.676Z,10.4
2018-10-15T03:11:53.342Z,10.4
2018-10-15T03:12:54.021Z,10.4
2018-10-15T03:13:54.726Z,10.4
2018-10-15T03:14:55.397Z,10.4
2018-10-15T03:15:56.065Z,10.4
2018-10-15T03:16:56.734Z,10.4
2018-10-15T03:17:57.404Z,10.4
2018-10-15T03:18:58.073Z,10.4
2018-10-15T03:19:58.824Z,10.4
2018-10-15T03:20:59.408Z,10.4
2018-10-15T03:22:00.078Z,10.4
2018-10-15T03:23:00.745Z,10.3
2018-10-15T03:24:01.423Z,10.3
2018-10-15T03:25:02.085Z,10.2
2018-10-15T03:26:02.756Z,10.4
2018-10-15T03:27:03.424Z,10.3
2018-10-15T03:28:04.092Z,10.3
2018-10-15T03:29:04.772Z,10.3
2018-10-15T03:30:05.484Z,10.3
2018-10-15T03:31:06.142Z,10.3
2018-10-15T03:32:06.812Z,10.3
2018-10-15T03:33:07.524Z,10.3
2018-10-15T03:34:08.194Z,10.3
2018-10-15T03:35:08.862Z,10.2
2018-10-15T03:36:09.530Z,10.3
2018-10-15T03:37:10.202Z,10.2
2018-10-15T03:38:10.869Z,10.2
2018-10-15T03:39:11.538Z,10.2
2018-10-15T03:40:12.209Z,10.2
2018-10-15T03:41:12.877Z,10.2
2018-10-15T03:42:13.549Z,10.2
2018-10-15T03:43:14.213Z,10.2
2018-10-15T03:44:14.924Z,10.2
2018-10-15T03:45:15.595Z,10.2
2018-10-15T03:46:16.264Z,10.2
2018-10-15T03:47:16.933Z,10.2
2018-10-15T03:48:17.602Z,10.2
2018-10-15T03:49:18.270Z,10.2
2018-10-15T03:50:18.944Z,10.0
2018-10-15T03:51:19.608Z,10.1
2018-10-15T03:52:20.280Z,10.0
2018-10-15T03:53:20.948Z,10.1
2018-10-15T03:54:21.613Z,10.1
2018-10-15T03:55:22.281Z,10.1
2018-10-15T03:56:22.952Z,10.1
2018-10-15T03:57:23.623Z,10.1
2018-10-15T03:58:24.290Z,10.1
2018-10-15T03:59:24.959Z,10.0
2018-10-15T04:00:25.626Z,10.0
2018-10-15T04:01:26.298Z,10.1
2018-10-15T04:02:27.023Z,10.0
2018-10-15T04:03:27.636Z,10.0
2018-10-15T04:04:28.319Z,10.1
2018-10-15T04:05:28.974Z,10.0
2018-10-15T04:06:29.641Z,10.1
2018-10-15T04:07:30.312Z,10.0
2018-10-15T04:08:31.011Z,10.0
2018-10-15T04:09:31.648Z,10.0
2018-10-15T04:10:32.314Z,10.0
2018-10-15T04:11:32.982Z,10.0
2018-10-15T04:12:33.651Z,10.0
2018-10-15T04:13:34.350Z,10.0
2018-10-15T04:14:35.090Z,10.0
2018-10-15T04:15:35.686Z,9.9
2018-10-15T04:16:36.367Z,10.0
2018-10-15T04:17:37.034Z,9.9
2018-10-15T04:18:37.706Z,10.0
2018-10-15T04:19:38.372Z,9.9
2018-10-15T04:20:39.040Z,10.0
2018-10-15T04:21:39.710Z,10.0
2018-10-15T04:22:40.377Z,9.9
2018-10-15T04:23:41.045Z,10.0
2018-10-15T04:24:41.715Z,10.1
2018-10-15T04:25:42.383Z,10.0
2018-10-15T04:26:43.052Z,9.9
2018-10-15T04:27:43.722Z,10.0
2018-10-15T04:28:44.389Z,10.0
2018-10-15T04:29:45.062Z,10.0
2018-10-15T04:30:45.729Z,10.0
2018-10-15T04:31:46.396Z,9.9
2018-10-15T04:32:47.065Z,9.9
2018-10-15T04:33:47.736Z,10.0
2018-10-15T04:34:48.400Z,9.9
2018-10-15T04:35:49.070Z,9.8
2018-10-15T04:36:49.737Z,9.9
2018-10-15T04:37:50.456Z,9.9
2018-10-15T04:38:51.072Z,9.8
2018-10-15T04:39:51.739Z,10.0
2018-10-15T04:40:52.406Z,9.8
2018-10-15T04:41:53.075Z,9.8
2018-10-15T04:42:53.743Z,9.9
2018-10-15T04:43:54.411Z,9.9
2018-10-15T04:44:55.079Z,9.9
2018-10-15T04:45:55.748Z,9.8
2018-10-15T04:46:56.413Z,9.8
2018-10-15T04:47:57.082Z,9.8
2018-10-15T04:48:57.785Z,9.8
2018-10-15T04:49:58.447Z,9.8
2018-10-15T04:50:59.089Z,9.8
2018-10-15T04:51:59.755Z,9.8
2018-10-15T04:53:00.423Z,9.8
2018-10-15T04:54:01.092Z,9.7
2018-10-15T04:55:01.831Z,9.7
2018-10-15T04:56:02.427Z,9.6
2018-10-15T04:57:03.144Z,9.7
2018-10-15T04:58:03.810Z,9.8
2018-10-15T04:59:04.480Z,9.8
2018-10-15T05:00:05.160Z,9.8
2018-10-15T05:01:05.816Z,9.7
2018-10-15T05:02:06.526Z,9.8
2018-10-15T05:03:07.193Z,9.8
2018-10-15T05:04:07.861Z,9.8
2018-10-15T05:05:08.529Z,9.8
2018-10-15T05:06:09.232Z,9.8
2018-10-15T05:07:09.864Z,9.8
2018-10-15T05:08:10.531Z,9.8
2018-10-15T05:09:11.198Z,9.8
2018-10-15T05:10:11.865Z,9.8
2018-10-15T05:11:12.534Z,9.8
2018-10-15T05:12:13.241Z,9.8
2018-10-15T05:13:13.870Z,9.9
2018-10-15T05:14:14.543Z,9.8
2018-10-15T05:15:15.247Z,9.8
2018-10-15T05:16:15.918Z,9.9
2018-10-15T05:17:16.589Z,9.8
2018-10-15T05:18:17.344Z,9.8
2018-10-15T05:19:17.963Z,9.8
2018-10-15T05:20:18.633Z,9.8
2018-10-15T05:21:19.467Z,9.9
2018-10-15T05:22:20.007Z,9.9
2018-10-15T05:23:20.710Z,9.7
2018-10-15T05:24:21.454Z,9.8
2018-10-15T05:25:22.107Z,9.8
2018-10-15T05:26:22.777Z,9.8
2018-10-15T05:27:23.447Z,9.9
2018-10-15T05:28:24.116Z,9.8
2018-10-15T05:29:24.785Z,9.8
2018-10-15T05:30:25.589Z,9.8
2018-10-15T05:31:26.123Z,9.9
2018-10-15T05:32:26.793Z,9.8
2018-10-15T05:33:27.464Z,9.9
2018-10-15T05:34:28.133Z,9.9
2018-10-15T05:35:28.804Z,9.9
2018-10-15T05:36:29.491Z,9.8
2018-10-15T05:37:30.144Z,9.8
2018-10-15T05:38:30.812Z,9.8
2018-10-15T05:39:31.482Z,9.8
2018-10-15T05:40:32.150Z,9.7
2018-10-15T05:41:32.820Z,9.8
2018-10-15T05:42:33.490Z,9.8
2018-10-15T05:43:34.159Z,9.7
2018-10-15T05:44:34.873Z,9.8
2018-10-15T05:45:35.542Z,9.8
2018-10-15T05:46:36.308Z,9.8
2018-10-15T05:47:36.882Z,9.7
2018-10-15T05:48:37.551Z,9.8
2018-10-15T05:49:38.222Z,9.8
2018-10-15T05:50:38.892Z,9.8
2018-10-15T05:51:39.564Z,9.8
2018-10-15T05:52:40.233Z,9.8
2018-10-15T05:53:40.904Z,9.8
2018-10-15T05:54:41.576Z,9.8
2018-10-15T05:55:42.244Z,9.9
2018-10-15T05:56:42.916Z,9.9
2018-10-15T05:57:43.592Z,9.9
2018-10-15T05:58:44.303Z,10.0
2018-10-15T05:59:44.975Z,9.9
2018-10-15T06:00:45.649Z,10.0
2018-10-15T06:01:46.320Z,9.9
2018-10-15T06:02:46.989Z,9.8
2018-10-15T06:03:47.661Z,9.9
2018-10-15T06:04:48.333Z,10.0
2018-10-15T06:05:49.048Z,10.0
2018-10-15T06:06:49.719Z,10.0
2018-10-15T06:07:50.392Z,9.9
2018-10-15T06:08:51.064Z,10.0
2018-10-15T06:09:51.736Z,9.9
2018-10-15T06:10:52.404Z,10.0
2018-10-15T06:11:53.079Z,10.0
2018-10-15T06:12:53.761Z,10.0
2018-10-15T06:13:54.465Z,10.0
2018-10-15T06:14:55.138Z,10.0
2018-10-15T06:15:55.814Z,10.1
2018-10-15T06:16:56.487Z,10.1
2018-10-15T06:17:57.163Z,10.1
2018-10-15T06:18:57.835Z,10.0
2018-10-15T06:19:58.524Z,10.1
2018-10-15T06:20:59.222Z,10.1
2018-10-15T06:21:59.894Z,10.2
2018-10-15T06:23:00.589Z,10.1
2018-10-15T06:24:01.343Z,10.2
2018-10-15T06:25:01.959Z,10.2
2018-10-15T06:26:02.644Z,10.3
2018-10-15T06:27:03.307Z,10.2
2018-10-15T06:28:04.044Z,10.3
2018-10-15T06:29:04.654Z,10.2
2018-10-15T06:30:05.358Z,10.3
2018-10-15T06:31:06.002Z,10.3
2018-10-15T06:32:06.678Z,10.4
2018-10-15T06:33:07.349Z,10.4
2018-10-15T06:34:08.024Z,10.3
2018-10-15T06:35:08.696Z,10.4
2018-10-15T06:36:09.391Z,10.4
2018-10-15T06:37:10.099Z,10.4
2018-10-15T06:38:10.817Z,10.4
2018-10-15T06:39:11.517Z,10.4
2018-10-15T06:40:12.144Z,10.5
2018-10-15T06:41:12.834Z,10.6
2018-10-15T06:42:13.550Z,10.5
2018-10-15T06:43:14.165Z,10.5
2018-10-15T06:44:14.842Z,10.5
2018-10-15T06:45:15.598Z,10.6
2018-10-15T06:46:16.273Z,10.6
2018-10-15T06:47:16.979Z,10.6
2018-10-15T06:48:17.567Z,10.6
2018-10-15T06:49:18.252Z,10.6
2018-10-15T06:50:18.917Z,10.6
2018-10-15T06:51:19.622Z,10.5
2018-10-15T06:52:20.299Z,10.6
2018-10-15T06:53:21.082Z,10.6
2018-10-15T06:54:21.695Z,10.6
2018-10-15T06:55:22.512Z,10.6
2018-10-15T06:56:23.045Z,10.6
2018-10-15T06:57:23.720Z,10.6
2018-10-15T06:58:24.391Z,10.8
2018-10-15T06:59:25.149Z,10.7
2018-10-15T07:00:25.775Z,10.8
2018-10-15T07:01:26.449Z,10.7
2018-10-15T07:02:27.121Z,10.7
2018-10-15T07:03:27.837Z,10.8
2018-10-15T07:04:28.508Z,10.8
2018-10-15T07:05:29.181Z,10.9
2018-10-15T07:06:29.853Z,10.9
2018-10-15T07:07:30.660Z,11.0
2018-10-15T07:08:31.200Z,10.9
2018-10-15T07:09:31.874Z,10.9
2018-10-15T07:10:32.548Z,10.9
2018-10-15T07:11:33.220Z,11.0
2018-10-15T07:12:33.894Z,11.0
2018-10-15T07:13:34.618Z,11.1
2018-10-15T07:14:35.339Z,11.1
2018-10-15T07:15:35.998Z,11.1
2018-10-15T07:16:36.672Z,11.1
2018-10-15T07:17:37.344Z,11.1
2018-10-15T07:18:38.016Z,11.1
2018-10-15T07:19:38.688Z,11.1
2018-10-15T07:20:39.421Z,11.3
2018-10-15T07:21:40.037Z,11.3
2018-10-15T07:22:40.749Z,11.3
2018-10-15T07:23:41.423Z,11.3
2018-10-15T07:24:42.095Z,11.3
2018-10-15T07:25:42.769Z,11.4
2018-10-15T07:26:43.441Z,11.5
2018-10-15T07:27:44.116Z,11.5
2018-10-15T07:28:44.787Z,11.5
2018-10-15T07:29:45.461Z,11.5
2018-10-15T07:30:46.132Z,11.5
2018-10-15T07:31:46.808Z,11.6
2018-10-15T07:32:47.525Z,11.6
2018-10-15T07:33:48.197Z,11.7
2018-10-15T07:34:48.871Z,11.6
2018-10-15T07:35:49.543Z,11.7
2018-10-15T07:36:50.216Z,11.7
2018-10-15T07:37:50.890Z,11.7
2018-10-15T07:38:51.562Z,11.8
2018-10-15T07:39:52.234Z,11.9
2018-10-15T07:40:52.908Z,11.9
2018-10-15T07:41:53.580Z,12.0
2018-10-15T07:42:54.254Z,12.0
2018-10-15T07:43:54.934Z,12.1
2018-10-15T07:44:55.601Z,12.0
2018-10-15T07:45:56.279Z,12.2
2018-10-15T07:46:56.948Z,12.1
2018-10-15T07:47:57.622Z,12.2
2018-10-15T07:48:58.293Z,12.2
2018-10-15T07:49:58.969Z,12.3
2018-10-15T07:50:59.641Z,12.2
2018-10-15T07:52:00.329Z,12.3
2018-10-15T07:53:01.150Z,12.4
2018-10-15T07:54:01.800Z,12.4
2018-10-15T07:55:02.428Z,12.4
2018-10-15T07:56:03.160Z,12.5
2018-10-15T07:57:03.775Z,12.6
2018-10-15T07:58:04.494Z,12.5
2018-10-15T07:59:05.139Z,12.5
2018-10-15T08:00:05.838Z,12.6
2018-10-15T08:01:06.550Z,12.7
2018-10-15T08:02:07.229Z,12.7
2018-10-15T08:03:07.933Z,12.7
2018-10-15T08:04:08.668Z,12.8
2018-10-15T08:05:09.456Z,12.8
2018-10-15T08:06:10.027Z,12.8
2018-10-15T08:07:10.704Z,12.8
2018-10-15T08:08:11.423Z,12.9
2018-10-15T08:09:12.084Z,12.9
2018-10-15T08:10:12.843Z,12.9
2018-10-15T08:11:13.553Z,13.0
2018-10-15T08:12:14.146Z,13.0
2018-10-15T08:13:14.819Z,13.1
2018-10-15T08:14:15.528Z,13.2
2018-10-15T08:15:16.233Z,13.2
2018-10-15T08:16:16.954Z,13.2
2018-10-15T08:17:17.626Z,13.3
2018-10-15T08:18:18.342Z,13.3
2018-10-15T08:19:19.014Z,13.3
2018-10-15T08:20:19.751Z,13.5
2018-10-15T08:21:20.362Z,13.5
2018-10-15T08:22:21.107Z,13.5
2018-10-15T08:23:21.710Z,13.6
2018-10-15T08:24:22.385Z,13.6
2018-10-15T08:25:23.103Z,13.7
2018-10-15T08:26:23.768Z,13.7
2018-10-15T08:27:24.441Z,13.8
2018-10-15T08:28:25.126Z,13.9
2018-10-15T08:29:25.849Z,13.8
2018-10-15T08:30:26.500Z,14.0
2018-10-15T08:31:27.172Z,14.0
2018-10-15T08:32:27.845Z,14.1
2018-10-15T08:33:28.564Z,14.1
2018-10-15T08:34:29.258Z,14.1
2018-10-15T08:35:29.972Z,14.2
2018-10-15T08:36:30.673Z,14.3
2018-10-15T08:37:31.350Z,14.4
2018-10-15T08:38:32.025Z,14.5
2018-10-15T08:39:32.701Z,14.5
2018-10-15T08:40:33.378Z,14.5
2018-10-15T08:41:34.058Z,14.6
2018-10-15T08:42:34.771Z,14.7
2018-10-15T08:43:35.449Z,14.7
2018-10-15T08:44:36.124Z,14.8
2018-10-15T08:45:36.801Z,14.9
2018-10-15T08:46:37.475Z,15.1
2018-10-15T08:47:38.150Z,15.1
2018-10-15T08:48:38.827Z,15.1
2018-10-15T08:49:39.514Z,15.2
2018-10-15T08:50:40.352Z,15.3
2018-10-15T08:51:40.936Z,15.3
2018-10-15T08:52:41.668Z,15.4
2018-10-15T08:53:42.366Z,15.4
2018-10-15T08:54:43.044Z,15.4
2018-10-15T08:55:43.767Z,15.5
2018-10-15T08:56:44.403Z,15.6
2018-10-15T08:57:45.070Z,15.7
2018-10-15T08:58:45.747Z,15.6
2018-10-15T08:59:46.428Z,15.7
2018-10-15T09:00:47.101Z,15.8
2018-10-15T09:01:47.833Z,15.8
2018-10-15T09:02:48.543Z,15.9
2018-10-15T09:03:49.224Z,15.9
2018-10-15T09:04:49.860Z,16.0
2018-10-15T09:05:50.519Z,16.0
2018-10-15T09:06:51.252Z,16.1
2018-10-15T09:07:52.284Z,16.2
2018-10-15T09:08:52.658Z,16.3
2018-10-15T09:09:53.362Z,16.3
2018-10-15T09:10:53.941Z,16.5
2018-10-15T09:11:54.614Z,16.5
2018-10-15T09:12:55.366Z,16.6
2018-10-15T09:13:55.969Z,16.6
2018-10-15T09:14:56.647Z,16.8
2018-10-15T09:15:57.392Z,16.7
2018-10-15T09:16:58.003Z,16.8
2018-10-15T09:17:58.774Z,16.9
2018-10-15T09:18:59.457Z,17.0
2018-10-15T09:20:00.138Z,16.9
2018-10-15T09:21:00.804Z,17.1
2018-10-15T09:22:01.490Z,17.1
2018-10-15T09:23:02.107Z,17.1
2018-10-15T09:24:02.862Z,17.2
2018-10-15T09:25:03.539Z,17.2
2018-10-15T09:26:04.232Z,17.2
2018-10-15T09:27:04.831Z,17.3
2018-10-15T09:28:05.531Z,17.4
2018-10-15T09:29:06.207Z,17.5
2018-10-15T09:30:06.954Z,17.5
2018-10-15T09:31:07.726Z,17.5
2018-10-15T09:32:08.241Z,17.6
2018-10-15T09:33:08.916Z,17.7
2018-10-15T09:34:09.597Z,17.8
2018-10-15T09:35:10.275Z,17.9
2018-10-15T09:36:10.950Z,17.9
2018-10-15T09:37:11.628Z,18.0
2018-10-15T09:38:12.307Z,18.0
2018-10-15T09:39:13.067Z,18.0
2018-10-15T09:40:13.663Z,18.0
2018-10-15T09:41:14.368Z,18.1
2018-10-15T09:42:15.061Z,18.1
2018-10-15T09:43:15.738Z,18.1
2018-10-15T09:44:16.419Z,18.1
2018-10-15T09:45:17.136Z,18.2
2018-10-15T09:46:17.814Z,18.2
2018-10-15T09:47:18.490Z,18.2
2018-10-15T09:48:19.168Z,18.2
2018-10-15T09:49:19.855Z,18.2
2018-10-15T09:50:20.636Z,18.3
2018-10-15T09:51:21.322Z,18.2
2018-10-15T09:52:22.005Z,18.3
2018-10-15T09:53:22.746Z,18.3
2018-10-15T09:54:23.374Z,18.2
2018-10-15T09:55:24.055Z,18.3
2018-10-15T09:56:24.790Z,18.3
2018-10-15T09:57:25.470Z,18.2
2018-10-15T09:58:26.153Z,18.3
2018-10-15T09:59:26.841Z,18.3
2018-10-15T10:00:27.624Z,18.3
2018-10-15T10:01:28.355Z,18.3
2018-10-15T10:02:29.090Z,18.4
2018-10-15T10:03:29.824Z,18.4
2018-10-15T10:04:30.508Z,18.3
2018-10-15T10:05:31.191Z,18.4
2018-10-15T10:06:31.876Z,18.4
2018-10-15T10:07:32.646Z,18.5
2018-10-15T10:08:33.295Z,18.4
2018-10-15T10:09:33.979Z,18.5
2018-10-15T10:10:34.714Z,18.5
2018-10-15T10:11:35.400Z,18.6
2018-10-15T10:12:36.083Z,18.6
2018-10-15T10:13:36.819Z,18.6
2018-10-15T10:14:37.562Z,18.6
2018-10-15T10:15:38.282Z,18.7
2018-10-15T10:16:38.963Z,18.6
2018-10-15T10:17:39.805Z,18.8
2018-10-15T10:18:40.338Z,18.7
2018-10-15T10:19:41.017Z,18.7
2018-10-15T10:20:41.758Z,18.8
2018-10-15T10:21:42.539Z,18.7
2018-10-15T10:22:43.213Z,18.8
2018-10-15T10:23:43.889Z,18.9
2018-10-15T10:24:44.587Z,18.9
2018-10-15T10:25:45.308Z,19.0
2018-10-15T10:26:46.077Z,19.0
2018-10-15T10:27:46.722Z,19.0
2018-10-15T10:28:47.568Z,19.0
2018-10-15T10:29:48.097Z,19.1
2018-10-15T10:30:48.885Z,19.2
2018-10-15T10:31:49.641Z,19.2
2018-10-15T10:32:50.337Z,19.2
2018-10-15T10:33:51.105Z,19.3
2018-10-15T10:34:51.849Z,19.3
2018-10-15T10:35:52.617Z,19.3
2018-10-15T10:36:53.326Z,19.4
2018-10-15T10:37:53.977Z,19.5
2018-10-15T10:38:54.760Z,19.4
2018-10-15T10:39:55.524Z,19.5
2018-10-15T10:40:56.174Z,19.6
2018-10-15T10:41:56.871Z,19.5
2018-10-15T10:42:57.642Z,19.7
2018-10-15T10:43:58.330Z,19.7
2018-10-15T10:44:59.128Z,19.7
2018-10-15T10:45:59.756Z,19.7
2018-10-15T10:47:00.512Z,19.7
2018-10-15T10:48:01.159Z,19.7
2018-10-15T10:49:01.867Z,19.9
2018-10-15T10:50:02.577Z,19.9
2018-10-15T10:51:03.317Z,19.8
2018-10-15T10:52:03.998Z,19.8
2018-10-15T10:53:04.687Z,20.0
2018-10-15T10:54:05.368Z,20.0
2018-10-15T10:55:06.102Z,20.1
2018-10-15T10:56:06.787Z,20.0
2018-10-15T10:57:07.471Z,20.1
2018-10-15T10:58:08.155Z,20.1
2018-10-15T10:59:08.888Z,20.1
2018-10-15T11:00:09.573Z,20.1
2018-10-15T11:01:10.256Z,20.2
2018-10-15T11:02:11.018Z,20.2
2018-10-15T11:03:11.627Z,20.1
2018-10-15T11:04:12.363Z,20.2
2018-10-15T11:05:13.048Z,20.2
2018-10-15T11:06:13.734Z,20.1
2018-10-15T11:07:14.469Z,20.3
2018-10-15T11:08:15.234Z,20.3
2018-10-15T11:09:15.841Z,20.3
2018-10-15T11:10:16.527Z,20.3
2018-10-15T11:11:17.212Z,20.3
2018-10-15T11:12:17.949Z,20.3
2018-10-15T11:13:18.638Z,20.4
2018-10-15T11:14:19.318Z,20.4
2018-10-15T11:15:20.002Z,20.4
2018-10-15T11:16:20.687Z,20.4
2018-10-15T11:17:21.422Z,20.5
2018-10-15T11:18:22.121Z,20.6
2018-10-15T11:19:22.799Z,20.6
2018-10-15T11:20:23.544Z,20.7
2018-10-15T11:21:24.258Z,20.6
2018-10-15T11:22:25.025Z,20.7
2018-10-15T11:23:25.678Z,20.8
2018-10-15T11:24:26.363Z,20.8
2018-10-15T11:25:27.047Z,20.6
2018-10-15T11:26:27.731Z,20.7
2018-10-15T11:27:28.468Z,20.8
2018-10-15T11:28:29.152Z,20.8
2018-10-15T11:29:29.855Z,20.8
2018-10-15T11:30:30.607Z,20.9
2018-10-15T11:31:31.308Z,20.9
2018-10-15T11:32:31.992Z,21.0
2018-10-15T11:33:32.728Z,21.0
2018-10-15T11:34:33.428Z,21.0
2018-10-15T11:35:34.141Z,21.1
2018-10-15T11:36:34.825Z,21.1
2018-10-15T11:37:35.568Z,21.1
2018-10-15T11:38:36.298Z,21.1
2018-10-15T11:39:36.980Z,21.1
2018-10-15T11:40:37.664Z,21.1
2018-10-15T11:41:38.352Z,21.1
2018-10-15T11:42:39.087Z,21.2
2018-10-15T11:43:39.916Z,21.1
2018-10-15T11:44:40.459Z,21.2
2018-10-15T11:45:41.198Z,21.3
2018-10-15T11:46:42.076Z,21.1
2018-10-15T11:47:42.666Z,21.1
2018-10-15T11:48:43.351Z,21.2
2018-10-15T11:49:44.090Z,21.3
2018-10-15T11:50:44.810Z,21.2
2018-10-15T11:51:45.496Z,21.4
2018-10-15T11:52:46.182Z,21.4
2018-10-15T11:53:46.970Z,21.3
2018-10-15T11:54:47.605Z,21.4
2018-10-15T11:55:48.338Z,21.4
2018-10-15T11:56:49.024Z,21.4
2018-10-15T11:57:49.710Z,21.4
2018-10-15T11:58:50.482Z,21.4
2018-10-15T11:59:51.135Z,21.5
2018-10-15T12:00:51.819Z,21.4
2018-10-15T12:01:52.505Z,21.5
2018-10-15T12:02:53.241Z,21.5
2018-10-15T12:03:53.975Z,21.5
2018-10-15T12:04:54.660Z,21.5
2018-10-15T12:05:55.347Z,21.6
2018-10-15T12:06:56.086Z,21.5
2018-10-15T12:07:56.770Z,21.6
2018-10-15T12:08:57.456Z,21.6
2018-10-15T12:09:58.144Z,21.7
2018-10-15T12:10:58.947Z,21.8
2018-10-15T12:11:59.566Z,21.8
2018-10-15T12:13:00.252Z,21.8
2018-10-15T12:14:00.994Z,21.8
2018-10-15T12:15:01.677Z,21.9
2018-10-15T12:16:02.362Z,21.9
2018-10-15T12:17:03.048Z,21.9
2018-10-15T12:18:03.735Z,21.8
2018-10-15T12:19:04.469Z,21.9
2018-10-15T12:20:05.157Z,21.8
2018-10-15T12:21:05.843Z,21.9
2018-10-15T12:22:06.558Z,21.9
2018-10-15T12:23:07.313Z,21.8
2018-10-15T12:24:08.000Z,21.9
2018-10-15T12:25:08.686Z,21.9
2018-10-15T12:26:09.423Z,21.9
2018-10-15T12:27:10.206Z,21.9
2018-10-15T12:28:10.892Z,21.9
2018-10-15T12:29:11.578Z,22.0
2018-10-15T12:30:12.267Z,22.1
2018-10-15T12:31:13.048Z,22.2
2018-10-15T12:32:13.731Z,22.2
2018-10-15T12:33:14.417Z,22.3
2018-10-15T12:34:15.105Z,22.3
2018-10-15T12:35:15.791Z,22.3
2018-10-15T12:36:16.528Z,22.3
2018-10-15T12:37:17.216Z,22.4
2018-10-15T12:38:17.903Z,22.3
2018-10-15T12:39:18.639Z,22.2
2018-10-15T12:40:19.327Z,22.3
2018-10-15T12:41:20.083Z,22.2
2018-10-15T12:42:20.701Z,22.3
2018-10-15T12:43:21.387Z,22.2
2018-10-15T12:44:22.123Z,22.2
2018-10-15T12:45:22.809Z,22.2
2018-10-15T12:46:23.499Z,22.1
2018-10-15T12:47:24.238Z,22.2
2018-10-15T12:48:25.016Z,22.2
2018-10-15T12:49:25.702Z,22.1
2018-10-15T12:50:26.439Z,22.2
2018-10-15T12:51:27.125Z,22.1
2018-10-15T12:52:27.811Z,22.1
2018-10-15T12:53:28.531Z,22.2
2018-10-15T12:54:29.235Z,22.2
2018-10-15T12:55:29.926Z,22.2
2018-10-15T12:56:30.658Z,22.2
2018-10-15T12:57:31.344Z,22.2
2018-10-15T12:58:32.078Z,22.2
2018-10-15T12:59:32.763Z,22.2
2018-10-15T13:00:33.452Z,22.2
2018-10-15T13:01:34.138Z,22.2
2018-10-15T13:02:34.875Z,22.2
2018-10-15T13:03:35.561Z,22.2
2018-10-15T13:04:36.296Z,22.1
2018-10-15T13:05:36.982Z,22.2
2018-10-15T13:06:37.721Z,22.3
2018-10-15T13:07:38.405Z,22.3
2018-10-15T13:08:39.189Z,22.3
2018-10-15T13:09:39.875Z,22.2
2018-10-15T13:10:40.610Z,22.1
2018-10-15T13:11:41.295Z,22.2
2018-10-15T13:12:41.982Z,22.1
2018-10-15T13:13:42.729Z,22.2
2018-10-15T13:14:43.354Z,22.2
2018-10-15T13:15:44.091Z,22.3
2018-10-15T13:16:44.825Z,22.2
2018-10-15T13:17:45.510Z,22.3
2018-10-15T13:18:46.198Z,22.2
2018-10-15T13:19:46.936Z,22.2
2018-10-15T13:20:47.642Z,22.1
2018-10-15T13:21:48.355Z,22.2
2018-10-15T13:22:49.040Z,22.2
2018-10-15T13:23:49.732Z,22.2
2018-10-15T13:24:50.464Z,22.2
2018-10-15T13:25:51.150Z,22.2
2018-10-15T13:26:51.886Z,22.2
2018-10-15T13:27:52.573Z,22.1
2018-10-15T13:28:53.358Z,22.2
2018-10-15T13:29:54.044Z,22.1
2018-10-15T13:30:54.729Z,22.2